Time,TemperatureF,DewpointF,PressureIn,WindDirection,WindDirectionDegrees,WindSpeedMPH,WindSpeedGustMPH,Humidity,HourlyPrecipIn,Conditions,Clouds,dailyrainin,SolarRadiationWatts/m^2,SoftwareType,DateUTC
2013-01-12 00:02:00,-4.0,-10.0,-100.00,NW,315,2.0,4.0,74,0.00,,,0.00,1.000000,,2013-01-12 07:02:00,
2013-01-12 00:32:00,-3.0,-10.0,-100.00,NW,311,3.0,5.0,71,0.00,,,0.00,1.000000,,2013-01-12 07:32:00,
2013-01-12 00:42:00,-3.0,-10.0,-100.00,NW,311,3.0,5.0,71,0.00,,,0.00,1.000000,,2013-01-12 07:42:00,
2013-01-12 00:52:00,-3.0,-10.0,-100.00,NW,311,3.0,5.0,71,0.00,,,0.00,1.000000,,2013-01-12 07:52:00,
2013-01-12 01:02:00,-3.0,-10.0,-100.00,NW,311,3.0,5.0,71,0.00,,,0.00,1.000000,,2013-01-12 08:02:00,
2013-01-12 01:11:00,-3.0,-10.0,-100.00,NW,311,3.0,5.0,71,0.00,,,0.00,1.000000,,2013-01-12 08:11:00,
2013-01-12 01:42:00,-4.0,-11.0,-100.00,NW,311,2.0,5.0,71,0.00,,,0.00,1.000000,,2013-01-12 08:42:00,
2013-01-12 01:52:00,-4.0,-11.0,-100.00,NW,311,2.0,5.0,71,0.00,,,0.00,1.000000,,2013-01-12 08:52:00,
2013-01-12 02:02:00,-4.0,-11.0,-100.00,NW,311,2.0,5.0,71,0.00,,,0.00,1.000000,,2013-01-12 09:02:00,
2013-01-12 02:11:00,-4.0,-11.0,-100.00,NW,311,2.0,5.0,71,0.00,,,0.00,1.000000,,2013-01-12 09:11:00,
2013-01-12 02:32:00,-4.0,-11.0,-100.00,NW,309,2.0,5.0,71,0.00,,,0.00,1.000000,,2013-01-12 09:32:00,
2013-01-12 02:42:00,-4.0,-11.0,-100.00,NW,309,2.0,5.0,71,0.00,,,0.00,1.000000,,2013-01-12 09:42:00,
2013-01-12 02:53:00,-4.0,-11.0,-100.00,NW,309,2.0,5.0,71,0.00,,,0.00,1.000000,,2013-01-12 09:53:00,
2013-01-12 03:02:00,-4.0,-11.0,-100.00,NW,309,2.0,5.0,71,0.00,,,0.00,1.000000,,2013-01-12 10:02:00,
2013-01-12 03:11:00,-4.0,-11.0,-100.00,NW,309,2.0,5.0,71,0.00,,,0.00,1.000000,,2013-01-12 10:11:00,
2013-01-12 03:43:00,-9.0,-17.0,-100.00,NW,309,2.0,4.0,67,0.00,,,0.00,1.000000,,2013-01-12 10:43:00,
2013-01-12 03:52:00,-9.0,-17.0,-100.00,NW,309,2.0,4.0,67,0.00,,,0.00,1.000000,,2013-01-12 10:52:00,
2013-01-12 04:12:00,-9.0,-17.0,-100.00,NW,309,2.0,4.0,67,0.00,,,0.00,1.000000,,2013-01-12 11:12:00,
2013-01-12 04:33:00,-10.0,-18.0,-100.00,NW,313,2.0,5.0,68,0.00,,,0.00,1.000000,,2013-01-12 11:33:00,
2013-01-12 05:33:00,-12.0,-20.0,-100.00,NW,318,2.0,5.0,66,0.00,,,0.00,1.000000,,2013-01-12 12:33:00,
2013-01-12 06:43:00,-10.0,-18.0,-100.00,NW,312,3.0,7.0,67,0.00,,,0.00,1.000000,,2013-01-12 13:43:00,
2013-01-12 06:53:00,-10.0,-18.0,-100.00,NW,312,3.0,7.0,67,0.00,,,0.00,1.000000,,2013-01-12 13:53:00,
2013-01-12 07:02:00,-10.0,-18.0,-100.00,NW,312,3.0,7.0,67,0.00,,,0.00,1.000000,,2013-01-12 14:02:00,
2013-01-12 07:12:00,-10.0,-18.0,-100.00,NW,312,3.0,7.0,67,0.00,,,0.00,1.000000,,2013-01-12 14:12:00,
2013-01-12 07:33:00,-10.0,-18.0,-100.00,WNW,296,3.0,6.0,66,0.00,,,0.00,1.000000,,2013-01-12 14:33:00,
2013-01-12 07:43:00,-10.0,-18.0,-100.00,WNW,296,3.0,6.0,66,0.00,,,0.00,1.000000,,2013-01-12 14:43:00,
2013-01-12 07:53:00,-10.0,-18.0,-100.00,WNW,296,3.0,6.0,66,0.00,,,0.00,1.000000,,2013-01-12 14:53:00,
2013-01-12 08:03:00,-10.0,-18.0,-100.00,WNW,296,3.0,6.0,66,0.00,,,0.00,1.000000,,2013-01-12 15:03:00,
2013-01-12 08:12:00,-10.0,-18.0,-100.00,WNW,296,3.0,6.0,66,0.00,,,0.00,1.000000,,2013-01-12 15:12:00,
2013-01-12 08:33:00,-7.0,-15.0,-100.00,NW,323,2.0,5.0,68,0.00,,,0.00,46.000000,,2013-01-12 15:33:00,
2013-01-12 08:43:00,-7.0,-15.0,-100.00,NW,323,2.0,5.0,68,0.00,,,0.00,46.000000,,2013-01-12 15:43:00,
2013-01-12 08:53:00,-7.0,-15.0,-100.00,NW,323,2.0,5.0,68,0.00,,,0.00,46.000000,,2013-01-12 15:53:00,
2013-01-12 09:02:00,-7.0,-15.0,-100.00,NW,323,2.0,5.0,68,0.00,,,0.00,46.000000,,2013-01-12 16:02:00,
2013-01-12 09:12:00,-7.0,-15.0,-100.00,NW,323,2.0,5.0,68,0.00,,,0.00,46.000000,,2013-01-12 16:12:00,
2013-01-12 09:33:00,5.0,-5.0,-100.00,NW,315,3.0,6.0,62,0.00,,,0.00,292.000000,,2013-01-12 16:33:00,
2013-01-12 10:02:00,5.0,-5.0,-100.00,NW,315,3.0,6.0,62,0.00,,,0.00,292.000000,,2013-01-12 17:02:00,
2013-01-12 10:12:00,5.0,-5.0,-100.00,NW,315,3.0,6.0,62,0.00,,,0.00,292.000000,,2013-01-12 17:12:00,
2013-01-12 10:33:00,14.0,-3.0,-100.00,ENE,70,4.0,9.0,46,0.00,,,0.00,486.000000,,2013-01-12 17:33:00,
2013-01-12 11:33:00,20.0,-1.0,-100.00,NE,39,3.0,9.0,38,0.00,,,0.00,655.000000,,2013-01-12 18:33:00,
2013-01-12 12:12:00,20.0,-1.0,-100.00,NE,39,3.0,9.0,38,0.00,,,0.00,655.000000,,2013-01-12 19:12:00,
2013-01-12 12:43:00,24.0,-2.0,-100.00,ENE,70,2.0,7.0,32,0.00,,,0.00,743.000000,,2013-01-12 19:43:00,
2013-01-12 12:53:00,24.0,-2.0,-100.00,ENE,70,2.0,7.0,32,0.00,,,0.00,743.000000,,2013-01-12 19:53:00,
2013-01-12 13:02:00,24.0,-2.0,-100.00,ENE,70,2.0,7.0,32,0.00,,,0.00,743.000000,,2013-01-12 20:02:00,
2013-01-12 13:12:00,24.0,-2.0,-100.00,ENE,70,2.0,7.0,32,0.00,,,0.00,743.000000,,2013-01-12 20:12:00,
2013-01-12 13:33:00,29.0,1.0,-100.00,WSW,239,3.0,8.0,29,0.00,,,0.00,804.000000,,2013-01-12 20:33:00,
2013-01-12 14:33:00,24.0,-4.0,-100.00,WNW,283,4.0,7.0,28,-99.99,,,0.00,406.000000,,2013-01-12 21:33:00,
2013-01-12 14:43:00,24.0,-4.0,-100.00,WNW,283,4.0,7.0,28,-99.99,,,0.00,406.000000,,2013-01-12 21:43:00,
2013-01-12 14:53:00,24.0,-4.0,-100.00,WNW,283,4.0,7.0,28,-99.99,,,0.00,406.000000,,2013-01-12 21:53:00,
2013-01-12 15:02:00,24.0,-4.0,-100.00,WNW,283,4.0,7.0,28,-99.99,,,0.00,406.000000,,2013-01-12 22:02:00,
2013-01-12 15:12:00,24.0,-4.0,-100.00,WNW,283,4.0,7.0,28,-99.99,,,0.00,406.000000,,2013-01-12 22:12:00,
2013-01-12 15:33:00,29.0,-6.0,-100.00,WSW,247,4.0,11.0,21,0.00,,,0.00,552.000000,,2013-01-12 22:33:00,
2013-01-12 16:43:00,27.0,-3.0,-100.00,WSW,254,4.0,11.0,26,-99.99,,,0.00,442.000000,,2013-01-12 23:43:00,
2013-01-12 16:53:00,27.0,-3.0,-100.00,WSW,254,4.0,11.0,26,-99.99,,,0.00,442.000000,,2013-01-12 23:53:00,
2013-01-12 17:02:00,27.0,-3.0,-100.00,WSW,254,4.0,11.0,26,-99.99,,,0.00,442.000000,,2013-01-13 00:02:00,
2013-01-12 17:33:00,18.0,-6.0,-100.00,WSW,247,2.0,9.0,34,-99.99,,,0.00,135.000000,,2013-01-13 00:33:00,
2013-01-12 17:43:00,18.0,-6.0,-100.00,WSW,247,2.0,9.0,34,-99.99,,,0.00,135.000000,,2013-01-13 00:43:00,
2013-01-12 17:53:00,18.0,-6.0,-100.00,WSW,247,2.0,9.0,34,-99.99,,,0.00,135.000000,,2013-01-13 00:53:00,
2013-01-12 18:02:00,18.0,-6.0,-100.00,WSW,247,2.0,9.0,34,-99.99,,,0.00,135.000000,,2013-01-13 01:02:00,
2013-01-12 18:43:00,6.0,-7.0,-100.00,NNW,334,2.0,4.0,55,0.00,,,0.00,2.000000,,2013-01-13 01:43:00,
2013-01-12 18:53:00,6.0,-7.0,-100.00,NNW,334,2.0,4.0,55,0.00,,,0.00,2.000000,,2013-01-13 01:53:00,
2013-01-12 19:43:00,-1.0,-10.0,-100.00,NW,307,1.0,4.0,66,0.00,,,0.00,1.000000,,2013-01-13 02:43:00,
2013-01-12 19:53:00,-1.0,-10.0,-100.00,NW,307,1.0,4.0,66,0.00,,,0.00,1.000000,,2013-01-13 02:53:00,
2013-01-12 20:33:00,-4.0,-11.0,-100.00,WSW,253,1.0,4.0,70,0.00,,,0.00,1.000000,,2013-01-13 03:33:00,
2013-01-12 21:33:00,-7.0,-14.0,-100.00,NW,324,1.0,3.0,72,0.00,,,0.00,1.000000,,2013-01-13 04:33:00,
2013-01-12 22:33:00,-9.0,-16.0,-100.00,NNW,329,2.0,3.0,70,0.00,,,0.00,1.000000,,2013-01-13 05:33:00,
2013-01-12 23:33:00,-10.0,-17.0,-100.00,NNW,332,2.0,3.0,69,0.00,,,0.00,1.000000,,2013-01-13 06:33:00,